createdAt,value
2017-06-29T00:00:41.170Z,989.03
2017-06-29T00:01:41.261Z,989.07
2017-06-29T00:02:35.255Z,989.05
2017-06-29T00:03:36.304Z,989.03
2017-06-29T00:04:37.333Z,989.02
2017-06-29T00:05:32.357Z,988.98
2017-06-29T00:06:26.434Z,988.95
2017-06-29T00:07:26.444Z,988.99
2017-06-29T00:08:21.565Z,988.99
2017-06-29T00:09:21.595Z,989.00
2017-06-29T00:10:15.539Z,988.98
2017-06-29T00:11:15.615Z,988.95
2017-06-29T00:12:10.604Z,988.99
2017-06-29T00:13:05.701Z,988.95
2017-06-29T00:14:05.718Z,988.94
2017-06-29T00:15:00.805Z,988.94
2017-06-29T00:15:55.796Z,988.93
2017-06-29T00:16:55.800Z,988.94
2017-06-29T00:17:50.841Z,988.92
2017-06-29T00:18:45.936Z,988.92
2017-06-29T00:19:46.932Z,988.88
2017-06-29T00:20:46.943Z,988.88
2017-06-29T00:21:47.045Z,988.87
2017-06-29T00:22:42.021Z,988.87
2017-06-29T00:23:36.061Z,988.86
2017-06-29T00:24:36.160Z,988.83
2017-06-29T00:25:31.096Z,988.85
2017-06-29T00:26:31.303Z,988.83
2017-06-29T00:27:25.236Z,988.83
2017-06-29T00:28:25.235Z,988.83
2017-06-29T00:29:20.722Z,988.84
2017-06-29T00:30:15.328Z,988.82
2017-06-29T00:31:16.326Z,988.83
2017-06-29T00:32:16.370Z,988.84
2017-06-29T00:33:11.408Z,988.85
2017-06-29T00:34:11.453Z,988.80
2017-06-29T00:35:05.510Z,988.82
2017-06-29T00:36:05.534Z,988.79
2017-06-29T00:37:00.739Z,988.79
2017-06-29T00:37:55.673Z,988.76
2017-06-29T00:38:55.596Z,988.73
2017-06-29T00:39:50.676Z,988.76
2017-06-29T00:40:45.718Z,988.78
2017-06-29T00:41:46.783Z,988.75
2017-06-29T00:42:46.825Z,988.74
2017-06-29T00:43:41.900Z,988.76
2017-06-29T00:44:41.851Z,988.74
2017-06-29T00:45:35.891Z,988.73
2017-06-29T00:46:35.914Z,988.75
2017-06-29T00:47:30.944Z,988.74
2017-06-29T00:48:26.042Z,988.71
2017-06-29T00:49:26.074Z,988.71
2017-06-29T00:50:21.108Z,988.68
2017-06-29T00:51:16.119Z,988.69
2017-06-29T00:52:16.377Z,988.73
2017-06-29T00:53:11.186Z,988.72
2017-06-29T00:54:06.207Z,988.74
2017-06-29T00:55:07.254Z,988.74
2017-06-29T00:56:07.285Z,988.74
2017-06-29T00:57:07.282Z,988.74
2017-06-29T00:58:07.390Z,988.72
2017-06-29T00:59:08.396Z,988.73
2017-06-29T01:00:09.485Z,988.75
2017-06-29T01:01:03.423Z,988.75
2017-06-29T01:02:03.519Z,988.74
2017-06-29T01:02:58.554Z,988.81
2017-06-29T01:03:53.571Z,988.73
2017-06-29T01:04:53.649Z,988.77
2017-06-29T01:05:48.623Z,988.75
2017-06-29T01:06:43.699Z,988.77
2017-06-29T01:07:37.918Z,988.78
2017-06-29T01:08:31.778Z,988.74
2017-06-29T01:09:25.779Z,988.76
2017-06-29T01:10:19.811Z,988.79
2017-06-29T01:11:13.944Z,988.81
2017-06-29T01:12:07.953Z,988.79
2017-06-29T01:12:56.388Z,988.81
2017-06-29T01:13:44.086Z,988.84
2017-06-29T01:14:32.124Z,988.83
2017-06-29T01:15:21.147Z,988.81
2017-06-29T01:16:09.102Z,988.84
2017-06-29T01:16:58.198Z,988.83
2017-06-29T01:17:58.185Z,988.86
2017-06-29T01:18:58.291Z,988.83
2017-06-29T01:19:53.302Z,988.79
2017-06-29T01:20:41.354Z,988.78
2017-06-29T01:21:30.403Z,988.76
2017-06-29T01:22:18.390Z,988.74
2017-06-29T01:23:06.450Z,988.76
2017-06-29T01:23:55.530Z,988.76
2017-06-29T01:24:43.529Z,988.75
2017-06-29T01:25:31.610Z,988.74
2017-06-29T01:26:20.651Z,988.72
2017-06-29T01:27:08.813Z,988.72
2017-06-29T01:27:57.210Z,988.75
2017-06-29T01:28:45.824Z,988.73
2017-06-29T01:29:33.832Z,988.68
2017-06-29T01:30:21.894Z,988.73
2017-06-29T01:31:10.905Z,988.74
2017-06-29T01:31:58.931Z,988.71
2017-06-29T01:32:46.994Z,988.73
2017-06-29T01:33:36.149Z,988.71
2017-06-29T01:34:24.255Z,988.72
2017-06-29T01:35:12.104Z,988.71
2017-06-29T01:36:01.255Z,988.70
2017-06-29T01:36:49.264Z,988.68
2017-06-29T01:37:38.275Z,988.67
2017-06-29T01:38:26.326Z,988.69
2017-06-29T01:39:14.375Z,988.68
2017-06-29T01:40:02.410Z,988.64
2017-06-29T01:40:50.411Z,988.64
2017-06-29T01:41:39.480Z,988.61
2017-06-29T01:42:27.556Z,988.61
2017-06-29T01:43:16.566Z,988.64
2017-06-29T01:44:04.657Z,988.62
2017-06-29T01:44:52.689Z,988.63
2017-06-29T01:45:40.717Z,988.63
2017-06-29T01:46:29.743Z,988.60
2017-06-29T01:47:17.810Z,988.61
2017-06-29T01:48:06.861Z,988.60
2017-06-29T01:48:54.897Z,988.59
2017-06-29T01:49:43.085Z,988.56
2017-06-29T01:50:32.111Z,988.63
2017-06-29T01:51:20.042Z,988.58
2017-06-29T01:52:08.031Z,988.67
2017-06-29T01:52:56.702Z,988.61
2017-06-29T01:53:45.149Z,988.60
2017-06-29T01:54:33.237Z,988.63
2017-06-29T01:55:22.218Z,988.61
2017-06-29T01:56:10.275Z,988.62
2017-06-29T01:57:10.275Z,988.62
2017-06-29T01:58:05.330Z,988.59
2017-06-29T01:59:00.393Z,988.62
2017-06-29T02:00:01.414Z,988.60
2017-06-29T02:01:01.416Z,988.59
2017-06-29T02:02:01.576Z,988.62
2017-06-29T02:02:57.017Z,988.61
2017-06-29T02:03:50.513Z,988.56
2017-06-29T02:04:51.626Z,988.58
2017-06-29T02:05:51.622Z,988.61
2017-06-29T02:06:51.609Z,988.56
2017-06-29T02:07:46.732Z,988.57
2017-06-29T02:08:40.718Z,988.55
2017-06-29T02:09:40.839Z,988.55
2017-06-29T02:10:35.783Z,988.58
2017-06-29T02:11:30.843Z,988.64
2017-06-29T02:12:31.889Z,988.70
2017-06-29T02:13:31.943Z,988.69
2017-06-29T02:14:31.937Z,988.68
2017-06-29T02:15:27.422Z,988.68
2017-06-29T02:16:16.047Z,988.69
2017-06-29T02:17:04.098Z,988.68
2017-06-29T02:17:52.090Z,988.64
2017-06-29T02:18:40.188Z,988.63
2017-06-29T02:19:34.170Z,988.66
2017-06-29T02:20:28.186Z,988.68
2017-06-29T02:21:28.287Z,988.67
2017-06-29T02:22:23.685Z,988.70
2017-06-29T02:23:18.329Z,988.67
2017-06-29T02:24:19.415Z,988.69
2017-06-29T02:25:19.362Z,988.74
2017-06-29T02:26:19.475Z,988.73
2017-06-29T02:27:14.477Z,988.72
2017-06-29T02:28:08.516Z,988.72
2017-06-29T02:29:08.597Z,988.74
2017-06-29T02:30:03.599Z,988.76
2017-06-29T02:31:03.605Z,988.74
2017-06-29T02:31:57.906Z,988.78
2017-06-29T02:32:57.721Z,988.77
2017-06-29T02:33:52.746Z,988.74
2017-06-29T02:34:48.064Z,988.77
2017-06-29T02:35:47.799Z,988.76
2017-06-29T02:36:42.865Z,988.75
2017-06-29T02:37:37.898Z,988.72
2017-06-29T02:38:38.902Z,988.76
2017-06-29T02:39:38.945Z,988.71
2017-06-29T02:40:38.991Z,988.70
2017-06-29T02:41:34.060Z,988.70
2017-06-29T02:42:34.039Z,988.68
2017-06-29T02:43:34.128Z,988.66
2017-06-29T02:44:28.098Z,988.60
2017-06-29T02:45:28.133Z,988.62
2017-06-29T02:46:23.202Z,988.63
2017-06-29T02:47:23.278Z,988.65
2017-06-29T02:48:23.277Z,988.66
2017-06-29T02:49:23.295Z,988.66
2017-06-29T02:50:17.290Z,988.67
2017-06-29T02:51:17.362Z,988.71
2017-06-29T02:52:12.888Z,988.71
2017-06-29T02:53:12.458Z,988.70
2017-06-29T02:54:06.431Z,988.72
2017-06-29T02:55:06.575Z,988.71
2017-06-29T02:56:01.603Z,988.70
2017-06-29T02:56:56.636Z,988.69
2017-06-29T02:57:56.641Z,988.70
2017-06-29T02:58:51.735Z,988.69
2017-06-29T02:59:46.732Z,988.70
2017-06-29T03:00:52.735Z,988.74
2017-06-29T03:01:46.798Z,988.74
2017-06-29T03:02:47.780Z,988.75
2017-06-29T03:03:48.828Z,988.75
2017-06-29T03:04:43.927Z,988.74
2017-06-29T03:05:37.915Z,988.74
2017-06-29T03:06:38.955Z,988.74
2017-06-29T03:07:33.947Z,988.75
2017-06-29T03:08:27.999Z,988.78
2017-06-29T03:09:28.026Z,988.76
2017-06-29T03:10:23.132Z,988.75
2017-06-29T03:11:18.097Z,988.73
2017-06-29T03:12:18.604Z,988.75
2017-06-29T03:13:13.174Z,988.76
2017-06-29T03:14:08.221Z,988.74
2017-06-29T03:15:08.302Z,988.77
2017-06-29T03:16:03.415Z,988.79
2017-06-29T03:16:58.339Z,988.77
2017-06-29T03:17:58.391Z,988.77
2017-06-29T03:18:53.425Z,988.80
2017-06-29T03:19:48.461Z,988.80
2017-06-29T03:20:42.505Z,988.81
2017-06-29T03:21:42.502Z,988.82
2017-06-29T03:22:37.520Z,988.80
2017-06-29T03:23:37.635Z,988.79
2017-06-29T03:24:38.638Z,988.82
2017-06-29T03:25:32.676Z,988.88
2017-06-29T03:26:33.695Z,988.89
2017-06-29T03:27:33.769Z,988.86
2017-06-29T03:28:28.834Z,988.82
2017-06-29T03:29:23.816Z,988.85
2017-06-29T03:30:23.859Z,988.84
2017-06-29T03:31:18.963Z,988.84
2017-06-29T03:32:14.390Z,988.82
2017-06-29T03:33:08.013Z,988.85
2017-06-29T03:34:08.013Z,988.82
2017-06-29T03:35:02.999Z,988.85
2017-06-29T03:35:58.118Z,988.84
2017-06-29T03:36:58.147Z,988.85
2017-06-29T03:37:53.137Z,988.85
2017-06-29T03:38:48.214Z,988.87
2017-06-29T03:39:42.249Z,988.88
2017-06-29T03:40:42.257Z,988.85
2017-06-29T03:41:37.324Z,988.83
2017-06-29T03:42:37.347Z,988.81
2017-06-29T03:43:37.388Z,988.81
2017-06-29T03:44:37.426Z,988.81
2017-06-29T03:45:31.432Z,988.82
2017-06-29T03:46:31.570Z,988.83
2017-06-29T03:47:26.550Z,988.82
2017-06-29T03:48:26.582Z,988.80
2017-06-29T03:49:27.579Z,988.79
2017-06-29T03:50:28.696Z,988.75
2017-06-29T03:51:29.635Z,988.73
2017-06-29T03:52:23.752Z,988.75
2017-06-29T03:53:24.721Z,988.76
2017-06-29T03:54:24.818Z,988.75
2017-06-29T03:55:19.838Z,988.75
2017-06-29T03:56:19.882Z,988.77
2017-06-29T03:57:20.868Z,988.72
2017-06-29T03:58:20.938Z,988.75
2017-06-29T03:59:20.970Z,988.78
2017-06-29T04:00:21.004Z,988.75
2017-06-29T04:01:21.047Z,988.75
2017-06-29T04:02:21.115Z,988.76
2017-06-29T04:03:21.123Z,988.81
2017-06-29T04:04:21.086Z,988.78
2017-06-29T04:05:21.169Z,988.77
2017-06-29T04:06:21.444Z,988.77
2017-06-29T04:07:21.244Z,988.72
2017-06-29T04:08:21.286Z,988.75
2017-06-29T04:09:21.308Z,988.73
2017-06-29T04:10:21.305Z,988.70
2017-06-29T04:11:21.386Z,988.69
2017-06-29T04:12:21.430Z,988.68
2017-06-29T04:13:21.427Z,988.65
2017-06-29T04:14:21.510Z,988.64
2017-06-29T04:15:21.531Z,988.62
2017-06-29T04:16:21.544Z,988.58
2017-06-29T04:17:21.588Z,988.63
2017-06-29T04:18:21.639Z,988.64
2017-06-29T04:19:21.697Z,988.62
2017-06-29T04:20:21.729Z,988.63
2017-06-29T04:21:21.787Z,988.66
2017-06-29T04:22:21.802Z,988.65
2017-06-29T04:23:21.827Z,988.65
2017-06-29T04:24:22.099Z,988.68
2017-06-29T04:25:21.815Z,988.67
2017-06-29T04:26:21.915Z,988.66
2017-06-29T04:27:21.963Z,988.70
2017-06-29T04:28:22.029Z,988.71
2017-06-29T04:29:22.047Z,988.72
2017-06-29T04:30:22.122Z,988.72
2017-06-29T04:31:22.122Z,988.75
2017-06-29T04:32:22.136Z,988.74
2017-06-29T04:33:22.156Z,988.78
2017-06-29T04:34:22.207Z,988.74
2017-06-29T04:35:22.266Z,988.80
2017-06-29T04:36:22.277Z,988.79
2017-06-29T04:37:22.311Z,988.79
2017-06-29T04:38:22.344Z,988.83
2017-06-29T04:39:22.421Z,988.81
2017-06-29T04:40:22.439Z,988.84
2017-06-29T04:41:22.628Z,988.84
2017-06-29T04:42:22.577Z,988.79
2017-06-29T04:43:17.553Z,988.81
2017-06-29T04:44:12.616Z,988.78
2017-06-29T04:45:07.624Z,988.87
2017-06-29T04:46:02.720Z,988.83
2017-06-29T04:46:56.713Z,988.85
2017-06-29T04:47:56.757Z,988.84
2017-06-29T04:48:56.810Z,988.82
2017-06-29T04:49:56.839Z,988.82
2017-06-29T04:50:50.852Z,988.81
2017-06-29T04:51:50.895Z,988.81
2017-06-29T04:52:45.956Z,988.77
2017-06-29T04:53:41.020Z,988.77
2017-06-29T04:54:35.012Z,988.76
2017-06-29T04:55:35.036Z,988.80
2017-06-29T04:56:30.094Z,988.82
2017-06-29T04:57:30.138Z,988.84
2017-06-29T04:58:31.231Z,988.82
2017-06-29T04:59:31.281Z,988.85
2017-06-29T05:00:31.255Z,988.86
2017-06-29T05:01:31.286Z,988.88
2017-06-29T05:02:31.329Z,988.92
2017-06-29T05:03:31.426Z,988.91
2017-06-29T05:04:31.613Z,988.91
2017-06-29T05:05:31.404Z,988.91
2017-06-29T05:06:31.428Z,988.94
2017-06-29T05:07:31.602Z,988.92
2017-06-29T05:08:31.565Z,988.93
2017-06-29T05:09:31.633Z,988.94
2017-06-29T05:10:31.619Z,988.95
2017-06-29T05:11:31.773Z,988.94
2017-06-29T05:12:31.711Z,988.94
2017-06-29T05:13:31.727Z,988.95
2017-06-29T05:14:31.816Z,988.96
2017-06-29T05:15:31.806Z,988.92
2017-06-29T05:16:31.932Z,988.92
2017-06-29T05:17:31.908Z,988.90
2017-06-29T05:18:31.976Z,988.93
2017-06-29T05:19:31.999Z,988.89
2017-06-29T05:20:32.053Z,988.93
2017-06-29T05:21:32.044Z,988.95
2017-06-29T05:22:32.132Z,989.00
2017-06-29T05:23:32.109Z,989.01
2017-06-29T05:24:32.201Z,989.06
2017-06-29T05:25:32.260Z,989.05
2017-06-29T05:26:32.243Z,989.05
2017-06-29T05:27:32.328Z,989.05
2017-06-29T05:28:32.389Z,989.04
2017-06-29T05:29:32.372Z,989.04
2017-06-29T05:30:38.393Z,989.02
2017-06-29T05:31:33.426Z,989.01
2017-06-29T05:32:27.448Z,989.03
2017-06-29T05:33:27.529Z,989.03
2017-06-29T05:34:22.664Z,989.03
2017-06-29T05:35:17.587Z,989.05
2017-06-29T05:36:17.672Z,989.11
2017-06-29T05:37:13.170Z,989.11
2017-06-29T05:38:07.780Z,989.00
2017-06-29T05:39:01.812Z,988.95
2017-06-29T05:40:01.826Z,988.94
2017-06-29T05:40:56.856Z,988.96
2017-06-29T05:41:56.974Z,988.91
2017-06-29T05:42:56.952Z,988.96
2017-06-29T05:43:57.050Z,988.96
2017-06-29T05:44:57.005Z,988.94
2017-06-29T05:45:57.099Z,988.94
2017-06-29T05:46:51.109Z,988.97
2017-06-29T05:47:51.151Z,988.98
2017-06-29T05:48:46.279Z,988.97
2017-06-29T05:49:41.250Z,988.94
2017-06-29T05:50:35.298Z,988.96
2017-06-29T05:51:36.427Z,988.96
2017-06-29T05:52:37.350Z,988.97
2017-06-29T05:53:32.400Z,989.03
2017-06-29T05:54:32.427Z,989.03
2017-06-29T05:55:32.500Z,989.02
2017-06-29T05:56:32.525Z,989.05
2017-06-29T05:57:32.567Z,989.07
2017-06-29T05:58:32.626Z,989.04
2017-06-29T05:59:32.669Z,988.98
2017-06-29T06:00:32.837Z,989.04
2017-06-29T06:01:39.002Z,989.07
2017-06-29T06:02:33.924Z,989.07
2017-06-29T06:03:27.866Z,989.13
2017-06-29T06:04:27.908Z,989.13
2017-06-29T06:05:22.905Z,989.10
2017-06-29T06:06:17.927Z,989.13
2017-06-29T06:07:18.532Z,989.11
2017-06-29T06:08:13.156Z,989.11
2017-06-29T06:09:08.093Z,989.09
2017-06-29T06:10:08.081Z,989.10
2017-06-29T06:11:08.207Z,989.11
2017-06-29T06:12:02.250Z,989.13
2017-06-29T06:13:03.228Z,989.20
2017-06-29T06:13:58.288Z,989.28
2017-06-29T06:14:52.378Z,989.19
2017-06-29T06:15:52.410Z,989.21
2017-06-29T06:16:47.446Z,989.27
2017-06-29T06:17:42.460Z,989.23
2017-06-29T06:18:36.601Z,989.16
2017-06-29T06:19:30.560Z,989.14
2017-06-29T06:20:30.649Z,989.04
2017-06-29T06:21:31.645Z,989.12
2017-06-29T06:22:31.726Z,989.15
2017-06-29T06:23:20.712Z,989.15
2017-06-29T06:24:08.825Z,989.11
2017-06-29T06:25:03.928Z,989.09
2017-06-29T06:25:57.868Z,989.10
2017-06-29T06:26:52.046Z,989.14
2017-06-29T06:27:47.041Z,989.11
2017-06-29T06:28:41.063Z,989.08
2017-06-29T06:29:36.123Z,989.08
2017-06-29T06:30:37.195Z,989.06
2017-06-29T06:31:26.210Z,989.13
2017-06-29T06:32:21.805Z,989.26
2017-06-29T06:33:15.303Z,989.24
2017-06-29T06:34:09.386Z,989.15
2017-06-29T06:35:04.479Z,989.18
2017-06-29T06:36:04.491Z,989.12
2017-06-29T06:36:59.575Z,989.16
2017-06-29T06:37:53.622Z,989.30
2017-06-29T06:38:41.642Z,989.26
2017-06-29T06:39:30.716Z,989.22
2017-06-29T06:40:19.785Z,989.12
2017-06-29T06:41:08.934Z,989.09
2017-06-29T06:42:02.892Z,988.99
2017-06-29T06:42:56.969Z,989.20
2017-06-29T06:43:51.007Z,989.06
2017-06-29T06:44:52.255Z,989.07
2017-06-29T06:45:46.161Z,989.28
2017-06-29T06:46:35.205Z,989.16
2017-06-29T06:47:23.664Z,989.26
2017-06-29T06:48:18.294Z,989.19
2017-06-29T06:49:18.361Z,989.20
2017-06-29T06:50:12.421Z,989.26
2017-06-29T06:51:06.528Z,989.16
2017-06-29T06:52:01.546Z,989.32
2017-06-29T06:52:56.871Z,989.37
2017-06-29T06:53:50.636Z,989.37
2017-06-29T06:54:38.677Z,989.36
2017-06-29T06:55:27.078Z,989.35
2017-06-29T06:56:21.745Z,989.25
2017-06-29T06:57:10.004Z,989.32
2017-06-29T06:58:04.211Z,989.33
2017-06-29T06:58:58.914Z,989.35
2017-06-29T06:59:52.977Z,989.29
2017-06-29T07:00:48.000Z,989.43
2017-06-29T07:01:42.481Z,989.43
2017-06-29T07:02:42.142Z,989.49
2017-06-29T07:03:42.216Z,989.53
2017-06-29T07:04:37.276Z,989.54
2017-06-29T07:05:32.315Z,989.49
2017-06-29T07:06:26.363Z,989.43
2017-06-29T07:07:21.850Z,989.48
2017-06-29T07:08:15.441Z,989.47
2017-06-29T07:09:04.402Z,989.45
2017-06-29T07:09:52.518Z,989.51
2017-06-29T07:10:46.590Z,989.50
2017-06-29T07:11:35.596Z,989.46
2017-06-29T07:12:30.678Z,989.34
2017-06-29T07:13:30.969Z,989.35
2017-06-29T07:14:24.821Z,989.43
2017-06-29T07:15:18.858Z,989.47
2017-06-29T07:16:18.870Z,989.48
2017-06-29T07:17:13.064Z,989.47
2017-06-29T07:18:13.389Z,989.59
2017-06-29T07:19:01.051Z,989.55
2017-06-29T07:20:02.094Z,989.57
2017-06-29T07:21:03.111Z,989.65
2017-06-29T07:21:52.170Z,989.68
2017-06-29T07:22:47.208Z,989.72
2017-06-29T07:23:41.505Z,989.71
2017-06-29T07:24:41.359Z,989.63
2017-06-29T07:25:36.420Z,989.59
2017-06-29T07:26:31.457Z,989.50
2017-06-29T07:27:31.448Z,989.55
2017-06-29T07:28:25.503Z,989.48
2017-06-29T07:29:25.664Z,989.46
2017-06-29T07:30:20.638Z,989.52
2017-06-29T07:31:14.685Z,989.51
2017-06-29T07:32:14.757Z,989.48
2017-06-29T07:33:10.240Z,989.48
2017-06-29T07:34:04.796Z,989.55
2017-06-29T07:34:58.898Z,989.55
2017-06-29T07:35:46.906Z,989.48
2017-06-29T07:36:47.017Z,989.55
2017-06-29T07:37:47.031Z,989.59
2017-06-29T07:38:47.090Z,989.63
2017-06-29T07:39:41.353Z,989.62
2017-06-29T07:40:35.149Z,989.66
2017-06-29T07:41:35.212Z,989.65
2017-06-29T07:42:30.226Z,989.62
2017-06-29T07:43:24.317Z,989.57
2017-06-29T07:44:18.303Z,989.55
2017-06-29T07:45:18.414Z,989.58
2017-06-29T07:46:12.425Z,989.61
2017-06-29T07:47:06.574Z,989.61
2017-06-29T07:47:55.775Z,989.68
2017-06-29T07:48:49.640Z,989.65
2017-06-29T07:49:44.609Z,989.65
2017-06-29T07:50:39.981Z,989.59
2017-06-29T07:51:33.729Z,989.61
2017-06-29T07:52:23.398Z,989.57
2017-06-29T07:53:22.828Z,989.67
2017-06-29T07:54:16.886Z,989.68
2017-06-29T07:55:10.957Z,989.76
2017-06-29T07:56:06.271Z,989.83
2017-06-29T07:57:06.022Z,989.85
2017-06-29T07:58:01.065Z,989.81
2017-06-29T07:58:56.146Z,989.77
2017-06-29T07:59:51.189Z,989.85
2017-06-29T08:00:46.195Z,989.85
2017-06-29T08:01:41.560Z,989.86
2017-06-29T08:02:35.298Z,989.87
2017-06-29T08:03:29.384Z,989.88
2017-06-29T08:04:24.410Z,989.93
2017-06-29T08:05:18.423Z,990.00
2017-06-29T08:06:12.498Z,989.97
2017-06-29T08:07:00.539Z,990.02
2017-06-29T08:07:55.596Z,990.02
2017-06-29T08:08:56.715Z,989.94
2017-06-29T08:09:45.681Z,989.91
2017-06-29T08:10:40.714Z,989.96
2017-06-29T08:11:29.821Z,990.01
2017-06-29T08:12:18.931Z,990.01
2017-06-29T08:13:12.932Z,989.99
2017-06-29T08:14:01.987Z,989.98
2017-06-29T08:14:56.048Z,989.93
2017-06-29T08:15:50.052Z,989.89
2017-06-29T08:16:50.140Z,989.86
2017-06-29T08:17:39.197Z,989.87
2017-06-29T08:18:28.221Z,989.86
2017-06-29T08:19:23.201Z,989.85
2017-06-29T08:20:17.323Z,989.82
2017-06-29T08:21:12.334Z,989.78
2017-06-29T08:22:01.414Z,989.75
2017-06-29T08:22:56.434Z,989.75
2017-06-29T08:23:51.574Z,989.76
2017-06-29T08:24:46.619Z,989.78
2017-06-29T08:25:47.611Z,989.82
2017-06-29T08:26:47.591Z,989.81
2017-06-29T08:27:41.697Z,989.84
2017-06-29T08:28:30.774Z,989.89
2017-06-29T08:29:31.746Z,989.94
2017-06-29T08:30:31.835Z,989.94
2017-06-29T08:31:31.856Z,989.92
2017-06-29T08:32:26.224Z,989.92
2017-06-29T08:33:25.914Z,989.94
2017-06-29T08:34:20.993Z,989.96
2017-06-29T08:35:15.023Z,989.98
2017-06-29T08:36:15.101Z,990.04
2017-06-29T08:37:15.096Z,989.96
2017-06-29T08:38:15.186Z,989.93
2017-06-29T08:39:15.183Z,989.90
2017-06-29T08:40:15.213Z,989.93
2017-06-29T08:41:15.293Z,989.99
2017-06-29T08:42:15.334Z,989.99
2017-06-29T08:43:15.397Z,990.05
2017-06-29T08:44:15.486Z,990.15
2017-06-29T08:45:09.913Z,990.18
2017-06-29T08:46:04.555Z,990.13
2017-06-29T08:47:05.542Z,990.21
2017-06-29T08:48:06.595Z,990.16
2017-06-29T08:49:00.628Z,990.20
2017-06-29T08:49:49.721Z,990.26
2017-06-29T08:50:38.724Z,990.33
2017-06-29T08:51:27.836Z,990.28
2017-06-29T08:52:22.305Z,990.29
2017-06-29T08:53:15.911Z,990.30
2017-06-29T08:54:10.943Z,990.30
2017-06-29T08:55:04.974Z,990.29
2017-06-29T08:56:00.026Z,990.30
2017-06-29T08:57:00.102Z,990.20
2017-06-29T08:58:00.155Z,990.16
2017-06-29T08:58:54.187Z,990.12
2017-06-29T08:59:54.237Z,990.03
2017-06-29T09:00:43.285Z,989.97
2017-06-29T09:01:37.315Z,989.97
2017-06-29T09:02:37.282Z,989.92
2017-06-29T09:03:32.406Z,989.89
2017-06-29T09:04:27.470Z,989.91
2017-06-29T09:05:21.550Z,989.94
2017-06-29T09:06:16.509Z,990.01
2017-06-29T09:07:17.583Z,990.08
2017-06-29T09:08:11.629Z,990.12
2017-06-29T09:09:05.732Z,990.14
2017-06-29T09:10:05.739Z,990.21
2017-06-29T09:10:59.809Z,990.26
2017-06-29T09:11:59.815Z,990.29
2017-06-29T09:12:48.920Z,990.33
2017-06-29T09:13:42.995Z,990.34
2017-06-29T09:14:32.005Z,990.32
2017-06-29T09:15:32.038Z,990.31
2017-06-29T09:16:21.086Z,990.30
2017-06-29T09:17:09.605Z,990.33
2017-06-29T09:18:04.191Z,990.28
2017-06-29T09:18:52.604Z,990.30
2017-06-29T09:19:47.300Z,990.26
2017-06-29T09:20:41.333Z,990.32
2017-06-29T09:21:35.359Z,990.35
2017-06-29T09:22:23.902Z,990.33
2017-06-29T09:23:23.445Z,990.42
2017-06-29T09:24:18.549Z,990.44
2017-06-29T09:25:13.538Z,990.47
2017-06-29T09:26:13.600Z,990.49
2017-06-29T09:27:07.616Z,990.56
2017-06-29T09:28:02.732Z,990.59
2017-06-29T09:28:51.716Z,990.54
2017-06-29T09:29:51.798Z,990.62
2017-06-29T09:30:51.985Z,990.62
2017-06-29T09:31:46.916Z,990.66
2017-06-29T09:32:34.963Z,990.66
2017-06-29T09:33:23.990Z,990.68
2017-06-29T09:34:18.101Z,990.64
2017-06-29T09:35:07.136Z,990.60
2017-06-29T09:36:08.145Z,990.60
2017-06-29T09:37:02.582Z,990.57
2017-06-29T09:37:56.623Z,990.50
2017-06-29T09:38:56.327Z,990.47
2017-06-29T09:39:50.378Z,990.39
2017-06-29T09:40:44.420Z,990.38
2017-06-29T09:41:32.473Z,990.34
2017-06-29T09:42:33.782Z,990.36
2017-06-29T09:43:33.486Z,990.37
2017-06-29T09:44:28.559Z,990.34
2017-06-29T09:45:16.674Z,990.42
2017-06-29T09:46:10.719Z,990.39
2017-06-29T09:46:59.792Z,990.45
2017-06-29T09:47:54.982Z,990.43
2017-06-29T09:48:54.888Z,990.45
2017-06-29T09:49:49.908Z,990.45
2017-06-29T09:50:43.988Z,990.42
2017-06-29T09:51:33.051Z,990.38
2017-06-29T09:52:27.528Z,990.39
2017-06-29T09:53:21.075Z,990.43
2017-06-29T09:54:21.236Z,990.40
2017-06-29T09:55:15.262Z,990.41
2017-06-29T09:56:09.300Z,990.36
2017-06-29T09:57:04.295Z,990.38
2017-06-29T09:57:52.382Z,990.34
2017-06-29T09:58:46.428Z,990.39
2017-06-29T09:59:46.453Z,990.38
2017-06-29T10:00:40.543Z,990.39
2017-06-29T10:01:29.586Z,990.42
2017-06-29T10:02:29.580Z,990.40
2017-06-29T10:03:29.693Z,990.36
2017-06-29T10:04:24.730Z,990.45
2017-06-29T10:05:18.787Z,990.42
2017-06-29T10:06:13.801Z,990.49
2017-06-29T10:07:13.824Z,990.51
2017-06-29T10:08:08.951Z,990.50
2017-06-29T10:09:02.990Z,990.55
2017-06-29T10:09:58.114Z,990.54
2017-06-29T10:10:58.026Z,990.50
2017-06-29T10:11:47.083Z,990.52
2017-06-29T10:12:47.090Z,990.52
2017-06-29T10:13:53.210Z,990.56
2017-06-29T10:14:53.231Z,990.62
2017-06-29T10:15:53.503Z,990.65
2017-06-29T10:16:48.310Z,990.61
2017-06-29T10:17:42.409Z,990.61
2017-06-29T10:18:36.458Z,990.62
2017-06-29T10:19:31.516Z,990.62
2017-06-29T10:20:19.541Z,990.66
2017-06-29T10:21:08.157Z,990.69
2017-06-29T10:21:55.623Z,990.70
2017-06-29T10:22:43.655Z,990.71
2017-06-29T10:23:32.717Z,990.71
2017-06-29T10:24:26.811Z,990.79
2017-06-29T10:25:26.861Z,990.80
2017-06-29T10:26:20.877Z,990.75
2017-06-29T10:27:15.910Z,990.73
2017-06-29T10:28:16.012Z,990.63
2017-06-29T10:29:11.029Z,990.61
2017-06-29T10:30:06.027Z,990.68
2017-06-29T10:30:55.132Z,990.69
2017-06-29T10:31:50.180Z,990.80
2017-06-29T10:32:45.206Z,990.86
2017-06-29T10:33:46.266Z,990.90
2017-06-29T10:34:41.290Z,990.86
2017-06-29T10:35:30.300Z,990.82
2017-06-29T10:36:24.425Z,990.82
2017-06-29T10:37:24.941Z,990.70
2017-06-29T10:38:12.517Z,990.66
2017-06-29T10:39:12.545Z,990.68
2017-06-29T10:40:12.619Z,990.75
2017-06-29T10:41:12.629Z,990.78
2017-06-29T10:42:06.674Z,990.82
2017-06-29T10:43:06.688Z,990.82
2017-06-29T10:44:00.785Z,990.92
2017-06-29T10:44:55.848Z,990.94
2017-06-29T10:45:55.960Z,990.94
2017-06-29T10:46:49.990Z,990.97
2017-06-29T10:47:43.985Z,990.95
2017-06-29T10:48:39.049Z,990.99
2017-06-29T10:49:39.181Z,991.04
2017-06-29T10:50:33.237Z,990.95
2017-06-29T10:51:28.255Z,991.01
2017-06-29T10:52:16.183Z,990.95
2017-06-29T10:53:10.263Z,990.93
2017-06-29T10:54:05.285Z,990.96
2017-06-29T10:54:59.417Z,990.98
2017-06-29T10:55:53.455Z,991.02
2017-06-29T10:56:48.538Z,990.92
2017-06-29T10:57:48.541Z,990.96
2017-06-29T10:58:42.711Z,990.99
2017-06-29T10:59:31.755Z,990.98
2017-06-29T11:00:25.935Z,990.98
2017-06-29T11:01:25.821Z,990.96
2017-06-29T11:02:19.813Z,990.95
2017-06-29T11:03:19.859Z,990.81
2017-06-29T11:04:19.896Z,990.79
2017-06-29T11:05:09.100Z,990.76
2017-06-29T11:06:03.087Z,990.78
2017-06-29T11:06:58.130Z,990.70
2017-06-29T11:07:52.212Z,990.78
2017-06-29T11:08:52.523Z,990.76
2017-06-29T11:09:46.276Z,990.83
2017-06-29T11:10:35.292Z,990.80
2017-06-29T11:11:29.319Z,990.90
2017-06-29T11:12:24.995Z,990.90
2017-06-29T11:13:13.576Z,990.99
2017-06-29T11:14:07.598Z,991.16
2017-06-29T11:15:02.583Z,991.28
2017-06-29T11:15:56.742Z,991.30
2017-06-29T11:16:51.658Z,991.33
2017-06-29T11:17:45.858Z,991.17
2017-06-29T11:18:39.839Z,991.17
2017-06-29T11:19:34.804Z,991.09
2017-06-29T11:20:22.831Z,990.91
2017-06-29T11:21:18.013Z,991.14
2017-06-29T11:22:06.962Z,991.19
2017-06-29T11:23:01.158Z,991.20
2017-06-29T11:23:49.150Z,991.26
2017-06-29T11:24:49.143Z,991.40
2017-06-29T11:25:43.123Z,991.33
2017-06-29T11:26:37.273Z,991.34
2017-06-29T11:27:26.723Z,991.40
2017-06-29T11:28:20.372Z,991.43
2017-06-29T11:29:14.577Z,991.42
2017-06-29T11:30:09.373Z,991.41
2017-06-29T11:31:03.572Z,991.44
2017-06-29T11:32:03.523Z,991.41
2017-06-29T11:33:04.109Z,991.41
2017-06-29T11:33:57.656Z,991.44
2017-06-29T11:34:52.810Z,991.25
2017-06-29T11:35:41.826Z,991.30
2017-06-29T11:36:35.841Z,991.27